createdAt,value
2018-03-20T00:00:40.676Z,59.50
2018-03-20T00:03:10.134Z,62.30
2018-03-20T00:05:39.702Z,62.20
2018-03-20T00:08:09.146Z,64.20
2018-03-20T00:10:38.193Z,64.10
2018-03-20T00:13:08.590Z,59.10
2018-03-20T00:15:37.468Z,59.20
2018-03-20T00:18:06.956Z,59.10
2018-03-20T00:20:35.634Z,60.50
2018-03-20T00:23:04.799Z,63.10
2018-03-20T00:25:34.700Z,64.10
2018-03-20T00:28:03.427Z,64.70
2018-03-20T00:30:32.272Z,64.60
2018-03-20T00:33:00.844Z,64.00
2018-03-20T00:35:30.347Z,63.70
2018-03-20T00:37:59.030Z,66.20
2018-03-20T00:40:27.716Z,66.80
2018-03-20T00:42:56.400Z,64.90
2018-03-20T00:45:25.087Z,65.90
2018-03-20T00:47:53.782Z,68.90
2018-03-20T00:50:22.462Z,66.40
2018-03-20T00:52:51.151Z,65.40
2018-03-20T00:55:19.839Z,65.70
2018-03-20T00:57:49.784Z,69.90
2018-03-20T01:00:19.363Z,70.80
2018-03-20T01:02:48.276Z,71.90
2018-03-20T01:05:18.578Z,68.60
2018-03-20T01:07:47.264Z,69.90
2018-03-20T01:10:15.947Z,74.20
2018-03-20T01:12:45.043Z,74.60
2018-03-20T01:15:14.427Z,74.70
2018-03-20T01:17:43.105Z,72.20
2018-03-20T01:20:11.776Z,78.30
2018-03-20T01:22:40.451Z,77.00
2018-03-20T01:25:11.118Z,81.10
2018-03-20T01:27:40.341Z,81.10
2018-03-20T01:30:09.025Z,81.60
2018-03-20T01:32:38.267Z,83.70
2018-03-20T01:35:06.948Z,79.90
2018-03-20T01:37:35.300Z,77.30
2018-03-20T01:40:03.671Z,78.00
2018-03-20T01:42:33.140Z,80.50
2018-03-20T01:45:02.243Z,83.00
2018-03-20T01:47:30.917Z,84.20
2018-03-20T01:50:01.154Z,83.20
2018-03-20T01:52:29.852Z,83.50
2018-03-20T01:54:58.842Z,85.00
2018-03-20T01:57:27.350Z,87.00
2018-03-20T01:59:56.782Z,80.90
2018-03-20T02:02:25.384Z,87.90
2018-03-20T02:04:54.852Z,90.00
2018-03-20T02:07:24.247Z,90.00
2018-03-20T02:09:52.941Z,89.80
2018-03-20T02:12:22.527Z,87.20
2018-03-20T02:14:51.226Z,91.10
2018-03-20T02:17:19.904Z,90.60
2018-03-20T02:19:49.238Z,91.30
2018-03-20T02:22:17.920Z,91.50
2018-03-20T02:24:46.622Z,91.80
2018-03-20T02:27:15.303Z,91.20
2018-03-20T02:29:43.984Z,91.30
2018-03-20T02:32:12.659Z,91.20
2018-03-20T02:34:41.335Z,92.30
2018-03-20T02:37:10.020Z,92.50
2018-03-20T02:39:38.703Z,92.90
2018-03-20T02:42:07.380Z,92.60
2018-03-20T02:44:36.064Z,93.00
2018-03-20T02:47:04.747Z,91.60
2018-03-20T02:49:33.432Z,92.50
2018-03-20T02:52:02.105Z,92.40
2018-03-20T02:54:31.555Z,93.30
2018-03-20T02:57:00.235Z,93.30
2018-03-20T02:59:28.931Z,93.40
2018-03-20T03:01:57.620Z,90.30
2018-03-20T03:04:26.308Z,91.80
2018-03-20T03:06:54.990Z,92.50
2018-03-20T03:09:23.679Z,93.00
2018-03-20T03:11:52.359Z,93.10
2018-03-20T03:14:21.050Z,94.00
2018-03-20T03:16:49.749Z,95.10
2018-03-20T03:19:18.999Z,94.80
2018-03-20T03:21:47.684Z,95.20
2018-03-20T03:24:17.118Z,94.10
2018-03-20T03:26:45.788Z,94.00
2018-03-20T03:29:14.477Z,91.90
2018-03-20T03:31:43.156Z,94.80
2018-03-20T03:34:11.843Z,95.50
2018-03-20T03:36:44.071Z,95.80
2018-03-20T03:39:12.739Z,94.00
2018-03-20T03:41:41.427Z,94.70
2018-03-20T03:44:10.107Z,95.00
2018-03-20T03:46:38.801Z,94.30
2018-03-20T03:49:08.207Z,94.20
2018-03-20T03:51:36.884Z,94.70
2018-03-20T03:54:05.239Z,95.30
2018-03-20T03:56:33.955Z,95.00
2018-03-20T03:59:03.296Z,93.40
2018-03-20T04:01:32.755Z,95.60
2018-03-20T04:04:01.451Z,95.50
2018-03-20T04:06:30.135Z,96.80
2018-03-20T04:08:58.824Z,97.10
2018-03-20T04:11:27.534Z,96.60
2018-03-20T04:13:56.203Z,97.00
2018-03-20T04:16:24.870Z,95.20
2018-03-20T04:18:53.548Z,97.60
2018-03-20T04:21:22.053Z,97.50
2018-03-20T04:23:50.748Z,97.90
2018-03-20T04:26:19.422Z,97.30
2018-03-20T04:28:48.106Z,98.20
2018-03-20T04:31:16.805Z,97.90
2018-03-20T04:33:45.496Z,98.30
2018-03-20T04:36:13.835Z,98.60
2018-03-20T04:38:42.512Z,99.30
2018-03-20T04:41:11.189Z,99.40
2018-03-20T04:43:40.656Z,99.80
2018-03-20T04:46:10.178Z,99.80
2018-03-20T04:48:39.628Z,99.80
2018-03-20T04:51:08.316Z,99.90
2018-03-20T04:53:36.999Z,99.90
2018-03-20T04:56:05.350Z,99.20
2018-03-20T04:58:34.029Z,99.70
2018-03-20T05:01:02.708Z,99.90
2018-03-20T05:03:31.392Z,99.10
2018-03-20T05:06:00.068Z,99.90
2018-03-20T05:08:28.762Z,99.90
2018-03-20T05:10:57.450Z,99.90
2018-03-20T05:13:26.329Z,99.90
2018-03-20T05:15:55.440Z,99.90
2018-03-20T05:18:23.928Z,99.90
2018-03-20T05:20:55.185Z,99.90
2018-03-20T05:23:29.378Z,99.90
2018-03-20T05:25:57.864Z,99.90
2018-03-20T05:28:26.875Z,99.90
2018-03-20T05:30:55.362Z,99.90
2018-03-20T05:33:24.631Z,99.90
2018-03-20T05:35:53.115Z,99.90
2018-03-20T05:38:21.614Z,99.90
2018-03-20T05:40:50.307Z,99.90
2018-03-20T05:43:18.786Z,99.90
2018-03-20T05:45:47.297Z,99.90
2018-03-20T05:54:03.860Z,99.90
2018-03-20T05:56:32.542Z,99.90
2018-03-20T05:59:01.234Z,99.90
2018-03-20T06:01:29.763Z,99.00
2018-03-20T06:03:58.752Z,98.40
2018-03-20T06:06:27.456Z,98.80
2018-03-20T06:08:56.747Z,99.50
2018-03-20T06:11:25.587Z,99.30
2018-03-20T06:13:54.275Z,99.00
2018-03-20T06:16:23.562Z,98.10
2018-03-20T06:18:53.142Z,97.60
2018-03-20T06:21:21.818Z,97.20
2018-03-20T06:23:50.498Z,96.60
2018-03-20T06:26:19.179Z,96.90
2018-03-20T06:28:47.850Z,96.50
2018-03-20T06:31:16.540Z,96.30
2018-03-20T06:33:47.347Z,95.00
2018-03-20T06:36:17.687Z,94.90
2018-03-20T06:41:36.370Z,94.00
2018-03-20T06:44:05.075Z,92.20
2018-03-20T06:46:33.759Z,99.90
2018-03-20T06:49:02.431Z,99.90
2018-03-20T06:51:31.365Z,99.90
2018-03-20T06:54:00.048Z,91.40
2018-03-20T06:56:28.961Z,77.00
2018-03-20T06:58:58.408Z,93.80
2018-03-20T07:01:26.886Z,92.00
2018-03-20T07:03:55.547Z,95.50
2018-03-20T07:06:24.980Z,93.00
2018-03-20T07:08:53.736Z,94.20
2018-03-20T07:11:22.414Z,90.30
2018-03-20T07:13:51.860Z,62.50
2018-03-20T07:16:20.546Z,62.50
2018-03-20T07:18:50.017Z,88.30
2018-03-20T07:21:19.459Z,64.60
2018-03-20T07:23:48.134Z,63.80
2018-03-20T07:26:16.831Z,66.30
2018-03-20T07:28:45.522Z,64.90
2018-03-20T07:31:14.206Z,56.20
2018-03-20T07:33:43.756Z,57.30
2018-03-20T07:36:13.194Z,58.80
2018-03-20T07:38:41.860Z,58.80
2018-03-20T07:41:11.299Z,57.60
2018-03-20T07:43:39.977Z,57.60
2018-03-20T07:46:08.661Z,57.30
2018-03-20T07:48:37.332Z,60.10
2018-03-20T07:51:06.779Z,56.10
2018-03-20T07:53:36.290Z,56.10
2018-03-20T07:56:04.631Z,54.90
2018-03-20T07:58:33.707Z,53.90
2018-03-20T08:01:02.367Z,56.10
2018-03-20T08:03:32.335Z,56.70
2018-03-20T08:06:01.760Z,56.30
2018-03-20T08:08:30.422Z,54.10
2018-03-20T08:10:59.104Z,53.50
2018-03-20T08:13:28.549Z,51.90
2018-03-20T08:15:57.992Z,50.20
2018-03-20T08:18:26.689Z,50.10
2018-03-20T08:20:56.527Z,49.80
2018-03-20T08:23:25.204Z,49.20
2018-03-20T08:25:53.874Z,49.00
2018-03-20T08:28:23.315Z,48.50
2018-03-20T08:30:52.003Z,48.40
2018-03-20T08:33:21.435Z,47.70
2018-03-20T08:35:50.104Z,47.70
2018-03-20T08:38:18.794Z,47.40
2018-03-20T08:40:47.464Z,46.30
2018-03-20T08:43:16.141Z,45.90
2018-03-20T08:45:44.819Z,47.00
2018-03-20T08:48:13.499Z,46.90
2018-03-20T08:50:42.945Z,44.80
2018-03-20T08:53:11.631Z,44.80
2018-03-20T08:55:40.317Z,44.70
2018-03-20T08:58:08.995Z,45.90
2018-03-20T09:00:37.678Z,45.20
2018-03-20T09:03:06.168Z,44.40
2018-03-20T09:05:34.846Z,44.90
2018-03-20T09:08:04.287Z,46.00
2018-03-20T09:10:32.967Z,46.00
2018-03-20T09:13:01.637Z,44.70
2018-03-20T09:15:30.321Z,44.10
2018-03-20T09:17:59.001Z,43.90
2018-03-20T09:20:27.878Z,44.30
2018-03-20T09:22:57.133Z,43.70
2018-03-20T09:25:25.807Z,43.50
2018-03-20T09:27:54.488Z,42.70
2018-03-20T09:30:23.165Z,43.30
2018-03-20T09:32:51.833Z,43.00
2018-03-20T09:35:20.503Z,42.50
2018-03-20T09:37:49.166Z,43.00
2018-03-20T09:40:17.832Z,43.40
2018-03-20T09:42:46.495Z,42.80
2018-03-20T09:45:15.155Z,41.20
2018-03-20T09:47:43.831Z,41.20
2018-03-20T09:50:12.503Z,41.30
2018-03-20T09:52:41.926Z,42.10
2018-03-20T09:55:10.603Z,42.00
2018-03-20T09:57:40.035Z,41.90
2018-03-20T10:00:08.700Z,41.90
2018-03-20T10:02:38.139Z,40.70
2018-03-20T10:05:06.822Z,40.70
2018-03-20T10:07:35.491Z,40.40
2018-03-20T10:10:04.651Z,40.00
2018-03-20T10:12:33.333Z,38.90
2018-03-20T10:15:02.915Z,38.30
2018-03-20T10:17:32.073Z,38.60
2018-03-20T10:20:00.850Z,37.20
2018-03-20T10:22:30.015Z,37.50
2018-03-20T10:24:59.281Z,37.40
2018-03-20T10:27:29.128Z,38.20
2018-03-20T10:29:57.811Z,36.50
2018-03-20T10:32:27.631Z,35.40
2018-03-20T10:34:58.147Z,36.10
2018-03-20T10:37:26.852Z,36.10
2018-03-20T10:39:55.535Z,35.90
2018-03-20T10:42:24.224Z,35.60
2018-03-20T10:44:54.023Z,35.60
2018-03-20T10:47:22.725Z,35.60
2018-03-20T10:49:52.476Z,35.80
2018-03-20T10:52:22.015Z,36.10
2018-03-20T10:54:52.083Z,36.40
2018-03-20T10:57:22.007Z,37.60
2018-03-20T10:59:51.464Z,36.50
2018-03-20T11:02:19.971Z,36.40
2018-03-20T11:04:51.427Z,36.10
2018-03-20T11:07:23.002Z,34.00
2018-03-20T11:09:52.523Z,34.00
2018-03-20T11:12:22.107Z,35.50
2018-03-20T11:14:53.492Z,35.50
2018-03-20T11:17:23.304Z,35.50
2018-03-20T11:19:53.100Z,35.30
2018-03-20T11:22:23.397Z,36.00
2018-03-20T11:24:54.511Z,35.80
2018-03-20T11:27:24.383Z,36.00
2018-03-20T11:29:53.851Z,37.20
2018-03-20T11:32:23.360Z,37.20
2018-03-20T11:34:52.385Z,36.70
2018-03-20T11:37:21.820Z,37.30
2018-03-20T11:39:50.540Z,37.30
2018-03-20T11:42:19.221Z,37.40
2018-03-20T11:44:48.174Z,37.10
2018-03-20T11:47:16.900Z,36.80
2018-03-20T11:49:45.581Z,37.50
2018-03-20T11:52:15.111Z,36.90
2018-03-20T11:54:44.991Z,36.80
2018-03-20T11:57:13.361Z,37.40
2018-03-20T11:59:42.051Z,37.80
2018-03-20T12:02:12.480Z,36.40
2018-03-20T12:04:42.129Z,37.00
2018-03-20T12:07:12.110Z,36.90
2018-03-20T12:09:48.734Z,37.10
2018-03-20T12:12:17.858Z,38.00
2018-03-20T12:14:47.142Z,38.00
2018-03-20T12:17:16.316Z,38.70
2018-03-20T12:19:45.463Z,38.70
2018-03-20T12:22:13.808Z,38.90
2018-03-20T12:24:42.932Z,39.90
2018-03-20T12:27:12.296Z,39.90
2018-03-20T12:29:41.011Z,40.20
2018-03-20T12:32:10.898Z,40.10
2018-03-20T12:34:39.579Z,40.80
2018-03-20T12:37:09.085Z,41.60
2018-03-20T12:39:37.763Z,41.50
2018-03-20T12:42:07.369Z,42.50
2018-03-20T12:44:35.784Z,43.20
2018-03-20T12:47:05.996Z,44.00
2018-03-20T12:49:35.456Z,44.90
2018-03-20T12:52:04.437Z,44.80
2018-03-20T12:54:33.146Z,44.70
2018-03-20T12:57:02.399Z,45.20
2018-03-20T12:59:31.852Z,47.60
2018-03-20T13:02:00.525Z,47.50
2018-03-20T13:04:29.230Z,48.00
2018-03-20T13:06:58.519Z,49.10
2018-03-20T13:09:27.175Z,49.10
2018-03-20T13:11:56.168Z,50.20
2018-03-20T13:14:24.833Z,51.40
2018-03-20T13:16:53.675Z,52.70
2018-03-20T13:19:22.373Z,53.60
2018-03-20T13:21:51.230Z,54.20
2018-03-20T13:24:19.900Z,54.90
2018-03-20T13:26:49.019Z,56.90
2018-03-20T13:29:18.271Z,56.80
2018-03-20T13:31:46.950Z,57.60
2018-03-20T13:34:16.226Z,58.40
2018-03-20T13:36:44.919Z,59.40
2018-03-20T13:39:13.602Z,60.50
2018-03-20T13:41:42.498Z,60.30
2018-03-20T13:44:11.459Z,62.90
2018-03-20T13:46:40.122Z,65.00
2018-03-20T13:49:10.449Z,71.70
2018-03-20T13:51:39.268Z,71.60
2018-03-20T13:54:08.131Z,73.70
2018-03-20T13:56:37.645Z,80.70
2018-03-20T13:59:07.083Z,83.80
2018-03-20T14:01:36.049Z,83.70
2018-03-20T14:04:04.714Z,84.90
2018-03-20T14:06:35.087Z,87.90
2018-03-20T14:09:03.438Z,87.90
2018-03-20T14:11:33.788Z,91.70
2018-03-20T14:14:02.940Z,91.70
2018-03-20T14:16:31.441Z,92.80
2018-03-20T14:19:00.891Z,94.90
2018-03-20T14:21:29.579Z,94.90
2018-03-20T14:23:58.259Z,95.50
2018-03-20T14:26:26.949Z,96.00
2018-03-20T14:28:55.907Z,95.80
2018-03-20T14:31:24.591Z,97.10
2018-03-20T14:33:53.272Z,96.90
2018-03-20T14:36:21.962Z,98.00
2018-03-20T14:38:50.314Z,98.10
2018-03-20T14:41:19.014Z,98.60
2018-03-20T14:43:48.030Z,98.30
2018-03-20T14:46:16.739Z,99.50
2018-03-20T14:48:45.411Z,99.70
2018-03-20T14:51:14.087Z,99.90
2018-03-20T14:53:43.524Z,99.90
2018-03-20T14:56:13.906Z,99.90
2018-03-20T14:58:43.345Z,99.90
2018-03-20T15:01:11.832Z,99.90
2018-03-20T15:03:41.428Z,99.90
2018-03-20T15:06:10.877Z,99.90
2018-03-20T15:08:39.556Z,99.90
2018-03-20T15:11:08.225Z,99.90
2018-03-20T15:13:37.672Z,99.90
2018-03-20T15:16:08.345Z,99.90
2018-03-20T15:18:37.977Z,99.90
2018-03-20T15:21:06.656Z,99.90
2018-03-20T15:23:35.394Z,99.90
2018-03-20T15:26:03.893Z,99.90
2018-03-20T15:28:33.354Z,99.90
2018-03-20T15:31:02.034Z,99.90
2018-03-20T15:33:30.739Z,99.90
2018-03-20T15:35:59.412Z,99.90
2018-03-20T15:38:28.088Z,99.90
2018-03-20T15:40:56.771Z,99.90
2018-03-20T15:43:26.071Z,99.90
2018-03-20T15:45:54.830Z,99.90
2018-03-20T15:48:23.508Z,99.90
2018-03-20T15:50:53.648Z,99.90
2018-03-20T15:53:22.623Z,99.90
2018-03-20T15:55:51.309Z,99.90
2018-03-20T15:58:20.020Z,99.90
2018-03-20T16:00:49.633Z,99.90
2018-03-20T16:03:18.313Z,99.90
2018-03-20T16:05:46.988Z,99.90
2018-03-20T16:08:15.664Z,99.90
2018-03-20T16:10:45.114Z,99.90
2018-03-20T16:13:14.522Z,99.90
2018-03-20T16:15:43.212Z,99.90
2018-03-20T16:18:12.670Z,99.90
2018-03-20T16:20:42.117Z,99.90
2018-03-20T16:23:10.794Z,99.90
2018-03-20T16:25:39.468Z,99.90
2018-03-20T16:28:07.975Z,99.90
2018-03-20T16:30:36.647Z,99.90
2018-03-20T16:33:05.357Z,99.90
2018-03-20T16:35:34.052Z,99.90
2018-03-20T16:38:02.724Z,99.90
2018-03-20T16:40:31.438Z,99.90
2018-03-20T16:43:00.175Z,99.90
2018-03-20T16:45:28.514Z,99.90
2018-03-20T16:47:57.017Z,99.90
2018-03-20T16:50:27.658Z,99.90
2018-03-20T16:52:57.068Z,99.90
2018-03-20T16:55:25.749Z,99.90
2018-03-20T16:57:54.421Z,99.90
2018-03-20T17:00:23.690Z,99.90
2018-03-20T17:02:53.602Z,99.90
2018-03-20T17:05:22.975Z,99.90
2018-03-20T17:07:51.647Z,99.90
2018-03-20T17:10:21.283Z,99.90
2018-03-20T17:12:49.640Z,99.90
2018-03-20T17:15:18.324Z,99.90
2018-03-20T17:17:46.991Z,99.90
2018-03-20T17:20:16.417Z,99.90
2018-03-20T17:22:45.148Z,99.90
2018-03-20T17:25:13.797Z,99.90
2018-03-20T17:27:43.335Z,99.90
2018-03-20T17:30:12.009Z,99.90
2018-03-20T17:32:40.955Z,99.90
2018-03-20T17:35:10.382Z,99.90
2018-03-20T17:37:39.043Z,99.90
2018-03-20T17:40:08.511Z,99.90
2018-03-20T17:42:37.171Z,99.90
2018-03-20T17:45:05.182Z,99.90
2018-03-20T17:47:34.786Z,99.90
2018-03-20T17:50:03.650Z,99.90
2018-03-20T17:52:32.325Z,99.90
2018-03-20T17:55:01.011Z,99.90
2018-03-20T17:57:29.681Z,99.90
2018-03-20T17:59:58.155Z,99.90
2018-03-20T18:02:27.449Z,99.90
2018-03-20T18:04:56.751Z,99.90
2018-03-20T18:07:26.212Z,99.90
2018-03-20T18:09:54.909Z,99.90
2018-03-20T18:12:23.603Z,99.90
2018-03-20T18:14:52.284Z,99.90
2018-03-20T18:17:21.895Z,99.90
2018-03-20T18:19:50.985Z,99.90
2018-03-20T18:22:19.653Z,99.90
2018-03-20T18:24:49.087Z,99.90
2018-03-20T18:27:17.763Z,99.90
2018-03-20T18:29:47.550Z,99.90
2018-03-20T18:32:17.268Z,99.90
2018-03-20T18:34:48.755Z,99.90
2018-03-20T18:37:17.427Z,99.90
2018-03-20T18:39:46.176Z,99.90
2018-03-20T18:42:14.896Z,99.90
2018-03-20T18:44:45.309Z,99.90
2018-03-20T18:47:13.697Z,99.90
2018-03-20T18:49:42.810Z,99.90
2018-03-20T18:52:11.552Z,99.90
2018-03-20T18:54:41.161Z,99.90
2018-03-20T18:57:09.837Z,99.90
2018-03-20T18:59:38.536Z,99.90
2018-03-20T19:02:13.340Z,99.90
2018-03-20T19:04:52.924Z,99.90
2018-03-20T19:07:21.671Z,99.90
2018-03-20T19:09:51.148Z,99.90
2018-03-20T19:12:20.754Z,99.90
2018-03-20T19:14:50.351Z,99.90
2018-03-20T19:17:19.033Z,99.90
2018-03-20T19:19:47.711Z,99.90
2018-03-20T19:22:16.380Z,99.90
2018-03-20T19:24:45.056Z,99.90
2018-03-20T19:27:13.960Z,99.90
2018-03-20T19:29:42.655Z,99.90
2018-03-20T19:32:11.227Z,99.90
2018-03-20T19:34:39.899Z,99.90
2018-03-20T19:37:12.723Z,99.90
2018-03-20T19:39:41.411Z,99.90
2018-03-20T19:42:10.088Z,99.90
2018-03-20T19:44:38.795Z,99.90
2018-03-20T19:47:07.478Z,99.90
2018-03-20T19:49:36.179Z,99.90
2018-03-20T19:52:04.536Z,99.90
2018-03-20T19:54:33.477Z,99.90
2018-03-20T19:57:02.927Z,99.90
2018-03-20T19:59:31.598Z,99.90
2018-03-20T20:02:00.273Z,99.90
2018-03-20T20:04:29.587Z,99.90
2018-03-20T20:06:58.830Z,99.90
2018-03-20T20:09:27.531Z,99.90
2018-03-20T20:11:56.213Z,99.90
2018-03-20T20:14:24.989Z,99.90
2018-03-20T20:16:54.565Z,99.90
2018-03-20T20:19:23.242Z,99.90
2018-03-20T20:21:51.929Z,99.90
2018-03-20T20:24:20.594Z,99.90
2018-03-20T20:26:50.042Z,99.90
2018-03-20T20:29:18.731Z,99.90
2018-03-20T20:31:47.415Z,99.90
2018-03-20T20:34:16.103Z,99.90
2018-03-20T20:36:44.803Z,99.90
2018-03-20T20:39:13.316Z,99.90
2018-03-20T20:41:41.980Z,99.90
2018-03-20T20:44:10.666Z,99.90
2018-03-20T20:46:40.065Z,99.90
2018-03-20T20:49:08.757Z,99.90
2018-03-20T20:51:37.431Z,99.90
2018-03-20T20:54:06.103Z,99.90
2018-03-20T20:56:34.772Z,99.90
2018-03-20T20:59:03.440Z,99.90
2018-03-20T21:01:32.120Z,99.90
2018-03-20T21:04:01.566Z,99.90
2018-03-20T21:06:31.066Z,99.90
2018-03-20T21:09:00.482Z,99.90
2018-03-20T21:11:29.160Z,99.90
2018-03-20T21:13:57.503Z,99.90
2018-03-20T21:16:26.995Z,99.90
2018-03-20T21:18:55.680Z,99.90
2018-03-20T21:21:24.357Z,99.90
2018-03-20T21:23:53.028Z,99.90
2018-03-20T21:26:22.806Z,99.90
2018-03-20T21:28:51.311Z,99.90
2018-03-20T21:31:21.411Z,99.90
2018-03-20T21:33:50.866Z,99.90
2018-03-20T21:36:19.564Z,99.90
2018-03-20T21:38:50.788Z,99.90
2018-03-20T21:41:19.892Z,99.90
2018-03-20T21:43:49.534Z,99.90
2018-03-20T21:46:18.969Z,99.90
2018-03-20T21:48:47.463Z,99.90
2018-03-20T21:51:16.147Z,99.90
2018-03-20T21:53:44.828Z,99.90
2018-03-20T21:56:13.500Z,99.90
2018-03-20T21:58:42.163Z,99.90
2018-03-20T22:01:11.589Z,99.90
2018-03-20T22:03:41.247Z,99.90
2018-03-20T22:06:09.930Z,99.90
2018-03-20T22:08:38.272Z,99.90
2018-03-20T22:11:06.938Z,99.90
2018-03-20T22:13:36.373Z,99.90
2018-03-20T22:16:05.028Z,99.90
2018-03-20T22:18:39.124Z,99.90
2018-03-20T22:21:07.832Z,99.90
2018-03-20T22:23:37.512Z,99.90
2018-03-20T22:26:05.915Z,99.90
2018-03-20T22:28:35.430Z,99.90
2018-03-20T22:31:03.771Z,99.90
2018-03-20T22:33:33.684Z,99.90
2018-03-20T22:36:03.793Z,99.90
2018-03-20T22:38:32.490Z,99.90
2018-03-20T22:41:01.822Z,99.90
2018-03-20T22:43:31.244Z,99.90
2018-03-20T22:46:00.336Z,99.90
2018-03-20T22:48:30.613Z,99.90
2018-03-20T22:50:59.433Z,99.90
2018-03-20T22:53:27.918Z,99.90
2018-03-20T22:55:57.311Z,99.90
2018-03-20T22:58:25.963Z,99.90
2018-03-20T23:00:54.627Z,99.90
2018-03-20T23:03:23.292Z,99.90
2018-03-20T23:05:51.960Z,99.90
2018-03-20T23:08:20.808Z,99.90
2018-03-20T23:10:49.463Z,99.90
2018-03-20T23:13:19.035Z,99.90
2018-03-20T23:15:47.706Z,99.90
2018-03-20T23:18:16.538Z,99.90
2018-03-20T23:20:45.963Z,99.90
2018-03-20T23:23:14.623Z,99.90
2018-03-20T23:25:43.862Z,99.90
2018-03-20T23:28:12.511Z,99.90
2018-03-20T23:30:41.747Z,99.90
2018-03-20T23:33:10.391Z,99.90
2018-03-20T23:35:40.659Z,99.90
2018-03-20T23:38:09.320Z,99.90
2018-03-20T23:40:38.748Z,99.90
2018-03-20T23:43:07.409Z,99.90
2018-03-20T23:45:36.823Z,99.90
2018-03-20T23:48:05.952Z,99.90
2018-03-20T23:50:35.432Z,99.90
2018-03-20T23:53:04.098Z,99.90
2018-03-20T23:55:33.568Z,99.90
2018-03-20T23:58:02.235Z,99.90
